Time;durP1;ratioP1;P1;durP2;ratioP2;P2;SDS_P1;SDS_P2;PMS_P1;PMS_P2;Temp;Humidity;BMP_temperature;BMP_pressure;BME280_temperature;BME280_humidity;BME280_pressure;Samples;Min_cycle;Max_cycle;Signal;HPM_P1;HPM_P2
2022/03/07 00:01:57;;;;;;;11.25;4.75;;;7.30;90.00;;;;;;10474299;28;20027;-62
2022/03/07 00:06:58;;;;;;;8.65;4.13;;;7.30;90.00;;;;;;10485126;28;20442;-65
2022/03/07 00:11:58;;;;;;;8.00;4.47;;;7.30;90.00;;;;;;10487089;28;20020;-65
2022/03/07 00:16:59;;;;;;;6.55;4.07;;;7.20;90.00;;;;;;10485076;28;20024;-65
2022/03/07 00:22:00;;;;;;;9.50;4.28;;;7.50;90.00;;;;;;10461121;28;20124;-65
2022/03/07 00:27:00;;;;;;;7.47;4.05;;;7.20;90.00;;;;;;10486185;28;20035;-65
2022/03/07 00:32:01;;;;;;;6.40;3.97;;;7.20;90.00;;;;;;10484735;28;20522;-66
2022/03/07 00:37:02;;;;;;;8.65;3.88;;;7.10;89.90;;;;;;10486140;28;20132;-65
2022/03/07 00:42:04;;;;;;;8.23;4.03;;;7.10;89.90;;;;;;10485915;28;20036;-65
2022/03/07 00:47:04;;;;;;;9.93;4.72;;;7.10;89.90;;;;;;10485635;28;20086;-63
2022/03/07 00:52:05;;;;;;;8.63;4.10;;;7.10;89.90;;;;;;10478169;28;20101;-65
2022/03/07 00:57:06;;;;;;;6.82;3.55;;;7.10;89.90;;;;;;10485494;28;20068;-66
2022/03/07 01:02:07;;;;;;;6.80;3.72;;;7.00;89.80;;;;;;10473509;28;20075;-65
2022/03/07 01:07:10;;;;;;;8.73;3.97;;;7.10;89.80;;;;;;10473695;28;20590;-64
2022/03/07 01:12:11;;;;;;;8.55;4.10;;;7.00;89.80;;;;;;10453526;28;20028;-63
2022/03/07 01:17:12;;;;;;;6.38;4.00;;;6.90;89.70;;;;;;10475446;28;20395;-65
2022/03/07 01:22:13;;;;;;;7.97;4.10;;;7.00;89.70;;;;;;10463907;28;20013;-63
2022/03/07 01:27:13;;;;;;;9.27;4.43;;;6.90;89.70;;;;;;10471764;28;20039;-62
2022/03/07 01:32:14;;;;;;;8.20;4.88;;;6.90;89.70;;;;;;10473079;28;20017;-63
2022/03/07 01:37:15;;;;;;;10.18;4.28;;;7.00;89.70;;;;;;10477389;28;20049;-66
2022/03/07 01:42:16;;;;;;;9.38;4.68;;;6.90;89.60;;;;;;10484359;28;20551;-64
2022/03/07 01:47:17;;;;;;;8.43;4.68;;;7.10;89.70;;;;;;10483821;28;20097;-64
2022/03/07 01:52:20;;;;;;;9.73;4.78;;;6.80;89.50;;;;;;10483787;28;20086;-65
2022/03/07 01:57:20;;;;;;;9.57;4.75;;;6.80;89.50;;;;;;10484033;28;20041;-62
2022/03/07 02:02:21;;;;;;;9.77;4.85;;;6.80;89.40;;;;;;10470739;28;20032;-66
2022/03/07 02:07:23;;;;;;;7.57;4.60;;;6.80;89.40;;;;;;10476925;28;20070;-64
2022/03/07 02:12:24;;;;;;;9.25;4.78;;;6.70;89.30;;;;;;10482807;28;20036;-66
2022/03/07 02:17:24;;;;;;;10.75;5.03;;;6.70;89.30;;;;;;10481655;28;20028;-63
2022/03/07 02:22:25;;;;;;;8.77;4.40;;;6.70;89.30;;;;;;10469682;28;20051;-64
2022/03/07 02:27:26;;;;;;;9.13;4.07;;;6.60;89.20;;;;;;10471958;28;20024;-64
2022/03/07 02:32:27;;;;;;;8.65;4.78;;;6.60;89.20;;;;;;10478293;28;20025;-63
2022/03/07 02:37:27;;;;;;;7.85;4.85;;;6.60;89.20;;;;;;10467181;28;20052;-63
2022/03/07 02:42:28;;;;;;;7.35;4.53;;;6.70;89.20;;;;;;10488001;28;20042;-66
2022/03/07 02:47:29;;;;;;;9.48;4.30;;;6.60;89.10;;;;;;10488202;28;20029;-63
2022/03/07 02:52:30;;;;;;;6.93;4.13;;;6.80;89.20;;;;;;10480303;28;20120;-66
2022/03/07 02:57:31;;;;;;;11.45;5.10;;;6.50;89.00;;;;;;10487154;28;20032;-66
2022/03/07 03:02:31;;;;;;;6.30;4.35;;;6.50;89.00;;;;;;10470436;28;20032;-66
2022/03/07 03:07:32;;;;;;;7.65;4.28;;;6.50;89.00;;;;;;10481528;28;20025;-66
2022/03/07 03:12:33;;;;;;;7.43;4.43;;;6.50;89.00;;;;;;10482741;28;20048;-64
2022/03/07 03:17:34;;;;;;;5.97;3.75;;;6.50;88.90;;;;;;10482650;28;20453;-63
2022/03/07 03:22:34;;;;;;;7.35;4.30;;;6.40;88.80;;;;;;10470568;28;20028;-66
2022/03/07 03:27:36;;;;;;;7.22;4.40;;;6.40;88.80;;;;;;10462733;28;20024;-66
2022/03/07 03:32:36;;;;;;;6.10;3.90;;;6.40;88.80;;;;;;10473773;28;20029;-66
2022/03/07 03:37:38;;;;;;;7.30;4.10;;;6.30;88.70;;;;;;10485426;28;20109;-65
2022/03/07 03:42:39;;;;;;;8.00;4.18;;;6.30;88.70;;;;;;10465596;28;20021;-66
2022/03/07 03:47:42;;;;;;;8.05;3.70;;;6.30;88.60;;;;;;10484991;28;20028;-66
2022/03/07 03:52:43;;;;;;;6.25;4.18;;;6.30;88.50;;;;;;10466492;28;20051;-64
2022/03/07 03:57:45;;;;;;;6.82;4.10;;;6.30;88.60;;;;;;10475644;28;20052;-65
2022/03/07 04:02:46;;;;;;;10.25;4.18;;;6.20;88.40;;;;;;10487593;28;20735;-65
2022/03/07 04:07:47;;;;;;;6.15;4.15;;;6.20;88.50;;;;;;10485437;28;20050;-65
2022/03/07 04:12:47;;;;;;;7.15;3.65;;;6.20;88.40;;;;;;10487179;28;20034;-62
2022/03/07 04:17:49;;;;;;;5.75;3.75;;;6.20;88.40;;;;;;10480495;28;20049;-66
2022/03/07 04:22:50;;;;;;;7.70;4.05;;;6.30;88.40;;;;;;10470808;28;20027;-66
2022/03/07 04:27:51;;;;;;;6.30;3.85;;;6.20;88.40;;;;;;10486376;28;20143;-65
2022/03/07 04:32:51;;;;;;;8.07;4.32;;;6.10;88.30;;;;;;10483177;28;20078;-66
2022/03/07 04:37:52;;;;;;;7.05;3.90;;;6.10;88.30;;;;;;10486027;28;20044;-65
2022/03/07 04:42:55;;;;;;;9.50;4.10;;;6.10;88.20;;;;;;10485787;28;20028;-66
2022/03/07 04:47:56;;;;;;;7.00;4.10;;;6.10;88.30;;;;;;10473552;28;20033;-64
2022/03/07 04:52:57;;;;;;;6.53;3.67;;;6.10;88.30;;;;;;10469619;28;20433;-66
2022/03/07 04:57:58;;;;;;;10.23;3.92;;;6.00;88.20;;;;;;10467376;28;20024;-64
2022/03/07 05:02:58;;;;;;;7.57;3.63;;;6.00;88.20;;;;;;10466538;28;20476;-63
2022/03/07 05:07:59;;;;;;;6.75;3.45;;;6.00;88.20;;;;;;10464321;28;20112;-66
2022/03/07 05:13:00;;;;;;;7.20;3.58;;;6.00;88.20;;;;;;10484873;28;20021;-65
2022/03/07 05:18:01;;;;;;;6.47;3.75;;;6.00;88.20;;;;;;10479008;28;20399;-64
2022/03/07 05:23:01;;;;;;;4.90;3.50;;;6.00;88.10;;;;;;10479955;28;20017;-66
2022/03/07 05:28:02;;;;;;;6.68;3.83;;;5.90;88.10;;;;;;10484459;28;20072;-65
2022/03/07 05:33:03;;;;;;;8.05;3.65;;;5.90;88.10;;;;;;10481883;28;20474;-62
2022/03/07 05:38:04;;;;;;;6.10;3.63;;;5.90;88.00;;;;;;10484192;28;20049;-66
2022/03/07 05:43:05;;;;;;;6.53;3.90;;;5.90;87.90;;;;;;10484062;28;20162;-65
2022/03/07 05:48:05;;;;;;;5.28;3.50;;;5.90;88.00;;;;;;10484103;28;20025;-65
2022/03/07 05:53:06;;;;;;;6.55;3.67;;;5.80;87.90;;;;;;10476898;28;20063;-66
2022/03/07 05:58:07;;;;;;;6.93;3.90;;;6.30;88.00;;;;;;10469929;28;20379;-65
2022/03/07 06:03:08;;;;;;;6.10;3.50;;;5.80;87.80;;;;;;10484184;28;20028;-65
2022/03/07 06:08:09;;;;;;;6.47;3.78;;;5.80;87.70;;;;;;10475740;28;20039;-64
2022/03/07 06:13:09;;;;;;;7.72;3.78;;;5.80;87.80;;;;;;10483000;28;20103;-65
2022/03/07 06:18:11;;;;;;;7.47;4.45;;;5.80;87.80;;;;;;10482926;28;20056;-60
2022/03/07 06:23:11;;;;;;;9.25;3.95;;;5.80;87.70;;;;;;10473142;28;20028;-65
2022/03/07 06:28:12;;;;;;;7.70;4.47;;;5.70;87.70;;;;;;10491286;28;20033;-65
2022/03/07 06:33:14;;;;;;;5.20;3.88;;;5.70;87.70;;;;;;10478012;28;20169;-66
2022/03/07 06:38:15;;;;;;;11.02;4.28;;;5.70;87.70;;;;;;10489151;28;20068;-64
2022/03/07 06:43:15;;;;;;;7.93;4.28;;;5.70;87.60;;;;;;10483282;28;20086;-66
2022/03/07 06:48:16;;;;;;;6.68;4.35;;;5.90;87.70;;;;;;10482350;28;20049;-64
2022/03/07 06:53:17;;;;;;;6.28;4.22;;;5.70;87.60;;;;;;10488055;28;20028;-64
2022/03/07 06:58:18;;;;;;;6.85;4.25;;;5.70;87.50;;;;;;10489807;28;20074;-65
2022/03/07 07:03:19;;;;;;;8.18;4.70;;;5.70;87.40;;;;;;10490332;28;20103;-63
2022/03/07 07:08:20;;;;;;;7.70;4.47;;;5.70;87.40;;;;;;10475719;28;20128;-62
2022/03/07 07:13:20;;;;;;;7.65;4.40;;;5.70;87.40;;;;;;10488849;28;20154;-65
2022/03/07 07:18:25;;;;;;;7.20;3.90;;;5.80;87.50;;;;;;10471894;28;20049;-65
2022/03/07 07:23:25;;;;;;;7.50;4.28;;;5.70;87.40;;;;;;10473478;28;20337;-65
2022/03/07 07:28:27;;;;;;;9.20;4.63;;;5.80;87.50;;;;;;10488378;28;20086;-65
2022/03/07 07:33:28;;;;;;;6.50;3.90;;;5.80;87.50;;;;;;10479874;28;20052;-65
2022/03/07 07:38:29;;;;;;;8.55;4.80;;;6.20;87.60;;;;;;10488417;28;20040;-66
2022/03/07 07:43:29;;;;;;;9.98;4.55;;;5.80;87.40;;;;;;10488421;28;20013;-65
2022/03/07 07:48:30;;;;;;;8.95;4.85;;;5.80;87.30;;;;;;10482509;28;20036;-64
2022/03/07 07:53:32;;;;;;;9.88;5.25;;;5.90;87.20;;;;;;10479557;28;20021;-65
2022/03/07 07:58:32;;;;;;;8.05;5.32;;;6.10;87.10;;;;;;10469096;28;20037;-65
2022/03/07 08:03:33;;;;;;;8.82;5.10;;;6.20;86.60;;;;;;10473670;28;20029;-61
2022/03/07 08:08:34;;;;;;;9.85;5.32;;;6.40;86.20;;;;;;10473042;28;20108;-66
2022/03/07 08:13:34;;;;;;;9.75;5.85;;;6.60;86.00;;;;;;10475850;28;20491;-71
2022/03/07 08:18:35;;;;;;;8.00;5.53;;;6.60;85.90;;;;;;10472417;28;20743;-69
2022/03/07 08:23:36;;;;;;;9.98;5.35;;;6.60;86.60;;;;;;10456834;28;20040;-64
2022/03/07 08:28:37;;;;;;;8.70;5.25;;;6.70;86.10;;;;;;10483154;28;20029;-62
2022/03/07 08:33:37;;;;;;;8.43;5.40;;;6.80;86.10;;;;;;10475658;28;20035;-65
2022/03/07 08:38:38;;;;;;;8.68;5.20;;;6.80;86.10;;;;;;10469999;28;20508;-65
2022/03/07 08:43:40;;;;;;;8.35;5.28;;;6.90;86.20;;;;;;10465921;28;20040;-63
2022/03/07 08:48:40;;;;;;;9.60;5.65;;;6.90;86.20;;;;;;10486401;28;20029;-63
2022/03/07 08:53:42;;;;;;;8.35;5.05;;;6.90;86.20;;;;;;10481712;28;20028;-65
2022/03/07 08:58:42;;;;;;;11.25;5.22;;;7.00;86.30;;;;;;10469534;28;20058;-64
2022/03/07 09:03:43;;;;;;;9.73;5.35;;;7.10;86.20;;;;;;10464410;28;20028;-64
2022/03/07 09:08:44;;;;;;;8.93;5.05;;;7.20;86.00;;;;;;10475715;28;20494;-66
2022/03/07 09:13:44;;;;;;;9.63;4.65;;;7.20;85.80;;;;;;10476721;28;20029;-66
2022/03/07 09:18:45;;;;;;;7.10;4.60;;;7.30;85.70;;;;;;10464970;28;20066;-65
2022/03/07 09:23:46;;;;;;;8.10;4.50;;;7.30;85.70;;;;;;10462734;28;20036;-65
2022/03/07 09:28:47;;;;;;;8.32;4.32;;;7.40;85.70;;;;;;10452390;28;20561;-65
2022/03/07 09:33:48;;;;;;;5.90;4.15;;;7.40;85.80;;;;;;10455371;28;20024;-64
2022/03/07 09:38:50;;;;;;;6.28;3.80;;;7.50;86.00;;;;;;10442543;28;20048;-63
2022/03/07 09:43:51;;;;;;;6.75;3.55;;;7.60;86.20;;;;;;10481784;28;20028;-63
2022/03/07 09:48:53;;;;;;;6.13;3.47;;;7.70;86.10;;;;;;10472261;28;20383;-64
2022/03/07 09:53:53;;;;;;;5.78;3.58;;;7.70;87.10;;;;;;10486054;28;20047;-63
2022/03/07 09:58:54;;;;;;;12.77;4.28;;;7.80;86.60;;;;;;10482931;28;20039;-66
2022/03/07 10:04:10;;;;;;;6.90;4.18;;;7.70;86.20;;;;;;10471147;28;20021;-61
2022/03/07 10:09:19;;;;;;;6.65;3.55;;;7.70;87.90;;;;;;10457200;28;20048;-64
2022/03/07 10:14:37;;;;;;;6.55;4.10;;;7.60;87.60;;;;;;10460866;28;20063;-65
2022/03/07 10:19:44;;;;;;;7.22;3.70;;;7.80;87.30;;;;;;10454021;28;20028;-64
2022/03/07 10:24:45;;;;;;;8.07;3.97;;;7.90;87.20;;;;;;10465297;28;20381;-64
2022/03/07 10:29:47;;;;;;;4.45;2.80;;;8.20;87.10;;;;;;10473113;28;20025;-61
2022/03/07 10:34:48;;;;;;;5.15;2.95;;;8.20;87.00;;;;;;10456325;28;20318;-63
2022/03/07 10:39:52;;;;;;;7.57;2.88;;;8.30;87.30;;;;;;10464493;28;20052;-63
2022/03/07 10:45:05;;;;;;;4.15;2.58;;;8.40;87.70;;;;;;10489934;28;20035;-63
2022/03/07 10:50:06;;;;;;;4.28;2.45;;;8.50;88.50;;;;;;10488877;28;20481;-61
2022/03/07 10:55:10;;;;;;;5.45;2.42;;;8.60;87.20;;;;;;10478907;28;20403;-63
2022/03/07 11:00:14;;;;;;;5.57;2.00;;;8.70;86.90;;;;;;10473337;28;20490;-63
2022/03/07 11:05:16;;;;;;;5.80;2.70;;;8.80;87.20;;;;;;10479303;28;20037;-64
2022/03/07 11:10:18;;;;;;;5.68;1.98;;;8.90;88.20;;;;;;10461834;28;20025;-63
2022/03/07 11:15:20;;;;;;;3.10;1.80;;;8.90;87.80;;;;;;10463788;28;20039;-65
2022/03/07 11:20:22;;;;;;;4.70;2.75;;;9.00;87.90;;;;;;10475129;28;20013;-63
2022/03/07 11:25:22;;;;;;;5.25;2.30;;;9.10;87.50;;;;;;10487219;28;20177;-64
2022/03/07 11:30:24;;;;;;;4.63;2.00;;;9.20;87.60;;;;;;10468687;28;20127;-63
2022/03/07 11:35:32;;;;;;;4.55;2.45;;;9.30;87.70;;;;;;10488897;28;20044;-64
2022/03/07 11:40:33;;;;;;;5.60;2.70;;;9.20;83.90;;;;;;10479933;28;20143;-71
2022/03/07 11:45:38;;;;;;;6.05;3.15;;;8.40;88.00;;;;;;10488102;28;20501;-66
2022/03/07 11:50:38;;;;;;;3.88;2.63;;;8.10;87.80;;;;;;10473774;28;20387;-67
2022/03/07 11:55:45;;;;;;;4.35;2.35;;;8.20;88.20;;;;;;10467239;28;20040;-66
2022/03/07 12:00:46;;;;;;;6.95;2.53;;;8.40;87.00;;;;;;10480769;28;20012;-67
2022/03/07 12:05:47;;;;;;;5.47;2.30;;;8.40;86.60;;;;;;10481522;28;20510;-67
2022/03/07 12:11:02;;;;;;;3.83;2.50;;;8.30;86.20;;;;;;10483855;28;20028;-66
2022/03/07 12:16:04;;;;;;;3.10;1.63;;;8.00;84.60;;;;;;10479346;28;20040;-64
2022/03/07 12:21:04;;;;;;;3.50;1.90;;;8.80;83.50;;;;;;10469878;28;20032;-67
2022/03/07 12:26:10;;;;;;;3.03;2.22;;;9.00;82.00;;;;;;10486881;28;20028;-68
2022/03/07 12:31:12;;;;;;;3.85;2.60;;;9.10;80.50;;;;;;10484527;28;20483;-65
2022/03/07 12:36:15;;;;;;;4.60;2.15;;;9.10;81.40;;;;;;10461231;28;20033;-66
2022/03/07 12:41:19;;;;;;;3.35;1.80;;;8.90;81.50;;;;;;10484354;28;20067;-66
2022/03/07 12:46:20;;;;;;;4.22;2.10;;;8.90;80.20;;;;;;10470097;28;20052;-61
2022/03/07 12:51:22;;;;;;;4.20;2.45;;;8.80;80.60;;;;;;10464099;28;20032;-64
2022/03/07 12:56:25;;;;;;;2.63;1.90;;;9.00;80.40;;;;;;10458816;28;20041;-66
2022/03/07 13:01:27;;;;;;;4.80;2.05;;;9.30;78.80;;;;;;10455342;28;20033;-64
2022/03/07 13:06:36;;;;;;;3.03;1.88;;;9.20;78.40;;;;;;10480169;28;20107;-65
2022/03/07 13:11:43;;;;;;;3.75;1.80;;;9.10;77.00;;;;;;10476886;28;20031;-68
2022/03/07 13:16:44;;;;;;;4.40;1.90;;;9.00;79.00;;;;;;10476693;28;20032;-65
2022/03/07 13:21:47;;;;;;;2.30;1.70;;;9.10;79.00;;;;;;10454537;28;20031;-60
2022/03/07 13:27:02;;;;;;;4.15;1.73;;;9.10;78.10;;;;;;10480408;28;20047;-67
2022/03/07 13:32:17;;;;;;;1.95;1.30;;;9.10;75.20;;;;;;10461892;28;20200;-66
2022/03/07 13:37:27;;;;;;;3.67;2.13;;;9.10;75.60;;;;;;10475618;28;20055;-65
2022/03/07 13:42:42;;;;;;;3.20;1.90;;;9.20;76.00;;;;;;10481107;28;20028;-61
2022/03/07 13:47:45;;;;;;;3.83;1.92;;;9.30;73.80;;;;;;10482589;28;20062;-62
2022/03/07 13:52:46;;;;;;;4.32;2.05;;;9.10;74.60;;;;;;10476498;28;20048;-65
2022/03/07 13:57:55;;;;;;;2.83;1.77;;;9.20;75.30;;;;;;10470830;28;20135;-61
2022/03/07 14:03:07;;;;;;;2.17;1.80;;;9.50;73.30;;;;;;10478531;28;20102;-64
2022/03/07 14:08:08;;;;;;;2.90;2.03;;;9.30;71.40;;;;;;10442776;28;20036;-60
2022/03/07 14:13:10;;;;;;;3.55;2.10;;;9.50;72.20;;;;;;10461066;28;20487;-62
2022/03/07 14:18:12;;;;;;;3.95;2.20;;;9.70;71.40;;;;;;10467539;28;20048;-62
2022/03/07 14:23:18;;;;;;;3.80;2.40;;;9.90;70.90;;;;;;10473183;28;20026;-65
2022/03/07 14:28:19;;;;;;;4.85;2.67;;;10.10;70.30;;;;;;10468959;28;20402;-67
2022/03/07 14:33:20;;;;;;;3.33;1.90;;;10.20;70.20;;;;;;10449717;28;20028;-64
2022/03/07 14:38:21;;;;;;;311.73;55.55;;;10.30;70.00;;;;;;10458473;28;20049;-65
2022/03/07 14:43:25;;;;;;;3.78;2.35;;;10.10;69.70;;;;;;10483568;28;20556;-69
2022/03/07 14:48:27;;;;;;;4.18;2.38;;;10.20;70.30;;;;;;10482751;28;20040;-71
2022/03/07 14:53:28;;;;;;;5.45;2.80;;;10.30;70.00;;;;;;10466668;28;20862;-70
2022/03/07 14:58:28;;;;;;;4.60;2.45;;;10.00;69.90;;;;;;10459573;28;20029;-62
2022/03/07 15:03:30;;;;;;;7.30;2.90;;;9.90;70.30;;;;;;10450681;28;20021;-69
2022/03/07 15:08:31;;;;;;;4.45;2.92;;;10.00;70.10;;;;;;10460965;28;20723;-67
2022/03/07 15:13:32;;;;;;;4.32;2.88;;;9.90;69.80;;;;;;10458375;28;20029;-69
2022/03/07 15:18:32;;;;;;;5.15;3.05;;;9.80;70.30;;;;;;10454765;28;20127;-70
2022/03/07 15:23:33;;;;;;;6.90;3.10;;;9.80;70.40;;;;;;10463428;28;20037;-67
2022/03/07 15:28:34;;;;;;;8.30;3.03;;;9.60;70.50;;;;;;10463748;28;20031;-67
2022/03/07 15:33:35;;;;;;;4.32;2.92;;;9.70;70.80;;;;;;10452311;28;20033;-70
2022/03/07 15:38:35;;;;;;;5.15;2.70;;;9.60;71.10;;;;;;10456605;28;20059;-70
2022/03/07 15:43:37;;;;;;;4.80;2.55;;;9.20;70.90;;;;;;10460482;28;20089;-64
2022/03/07 15:48:38;;;;;;;4.45;2.78;;;8.90;72.00;;;;;;10435211;28;20029;-71
2022/03/07 15:53:39;;;;;;;3.55;2.50;;;8.50;72.70;;;;;;10451755;28;20037;-67
2022/03/07 15:58:42;;;;;;;4.05;2.33;;;8.20;73.30;;;;;;10454284;28;20040;-68
2022/03/07 16:03:43;;;;;;;4.55;2.58;;;8.00;73.60;;;;;;10454896;28;20048;-63
2022/03/07 16:08:44;;;;;;;7.13;2.50;;;8.00;74.30;;;;;;10459579;28;20033;-63
2022/03/07 16:13:45;;;;;;;5.55;2.80;;;8.10;74.50;;;;;;10453810;28;20029;-66
2022/03/07 16:18:45;;;;;;;3.88;2.10;;;8.20;73.90;;;;;;10433781;28;20410;-68
2022/03/07 16:23:46;;;;;;;3.25;2.28;;;8.20;73.60;;;;;;10459011;28;20048;-67
2022/03/07 16:28:48;;;;;;;3.33;2.30;;;8.00;73.50;;;;;;10452587;28;20047;-67
2022/03/07 16:33:48;;;;;;;4.82;2.50;;;7.80;74.20;;;;;;10449732;28;20049;-64
2022/03/07 16:38:49;;;;;;;4.65;2.83;;;7.80;74.80;;;;;;10475404;28;20044;-69
2022/03/07 16:43:50;;;;;;;4.97;2.53;;;7.70;75.40;;;;;;10472656;28;20025;-67
2022/03/07 16:48:51;;;;;;;3.67;2.60;;;7.60;75.70;;;;;;10475200;28;20123;-69
2022/03/07 16:53:52;;;;;;;2.65;2.05;;;7.90;77.20;;;;;;10470986;28;20064;-69
2022/03/07 16:58:54;;;;;;;4.82;2.67;;;8.20;77.10;;;;;;10471639;28;21063;-74
2022/03/07 17:03:54;;;;;;;9.30;2.70;;;8.40;76.90;;;;;;10467640;28;20056;-71
2022/03/07 17:08:55;;;;;;;7.30;2.05;;;8.60;76.90;;;;;;10469633;28;20032;-71
2022/03/07 17:13:57;;;;;;;3.63;2.17;;;8.90;77.20;;;;;;10483633;28;20025;-72
2022/03/07 17:18:57;;;;;;;3.30;2.33;;;8.90;77.30;;;;;;10476165;28;20047;-72
2022/03/07 17:23:59;;;;;;;4.13;2.13;;;9.00;77.40;;;;;;10474319;28;20276;-72
2022/03/07 17:28:59;;;;;;;4.80;2.38;;;9.00;77.50;;;;;;10473021;28;20043;-74
2022/03/07 17:34:00;;;;;;;3.65;2.30;;;9.00;77.50;;;;;;10454205;28;20017;-74
2022/03/07 17:39:01;;;;;;;4.40;2.20;;;9.10;77.80;;;;;;10448587;28;20053;-74
2022/03/07 17:44:03;;;;;;;2.92;1.92;;;9.10;78.20;;;;;;10459481;28;20589;-70
2022/03/07 17:49:04;;;;;;;3.53;1.70;;;9.10;78.60;;;;;;10472813;28;20732;-73
2022/03/07 17:54:05;;;;;;;3.15;1.90;;;9.20;79.50;;;;;;10459052;28;20081;-68
2022/03/07 17:59:06;;;;;;;3.83;2.13;;;9.20;79.70;;;;;;10465913;28;20164;-70
2022/03/07 18:04:07;;;;;;;3.38;2.20;;;9.30;80.80;;;;;;10474554;28;20119;-70
2022/03/07 18:09:08;;;;;;;4.30;2.28;;;9.30;80.20;;;;;;10455730;28;20167;-69
2022/03/07 18:14:09;;;;;;;4.05;2.05;;;9.30;80.30;;;;;;10459261;28;20489;-70
2022/03/07 18:19:09;;;;;;;3.65;2.35;;;9.20;80.20;;;;;;10459705;28;20033;-71
2022/03/07 18:24:10;;;;;;;4.38;2.15;;;9.20;80.60;;;;;;10466000;28;20312;-69
2022/03/07 18:29:11;;;;;;;3.83;2.63;;;9.20;81.20;;;;;;10475144;28;20067;-69
2022/03/07 18:34:12;;;;;;;4.65;2.30;;;9.10;80.80;;;;;;10479819;28;20386;-69
2022/03/07 18:39:13;;;;;;;4.47;2.50;;;9.10;81.00;;;;;;10479472;28;20159;-69
2022/03/07 18:44:14;;;;;;;3.13;2.00;;;9.10;81.10;;;;;;10473246;28;20033;-70
2022/03/07 18:49:14;;;;;;;3.42;2.40;;;9.10;81.40;;;;;;10474675;28;20045;-69
2022/03/07 18:54:15;;;;;;;4.43;2.40;;;9.00;81.70;;;;;;10478868;28;20064;-70
2022/03/07 18:59:19;;;;;;;3.35;2.58;;;9.00;81.80;;;;;;10476463;28;20115;-69
2022/03/07 19:04:23;;;;;;;3.65;2.30;;;8.90;81.90;;;;;;10473757;28;20482;-69
2022/03/07 19:09:26;;;;;;;4.53;2.47;;;8.90;81.90;;;;;;10475036;28;20033;-68
2022/03/07 19:14:26;;;;;;;4.05;2.72;;;8.80;81.90;;;;;;10479929;28;20009;-69
2022/03/07 19:19:27;;;;;;;4.40;2.40;;;8.80;81.90;;;;;;10476633;28;20028;-69
2022/03/07 19:24:28;;;;;;;3.60;2.33;;;8.80;81.90;;;;;;10463219;28;20776;-69
2022/03/07 19:29:28;;;;;;;4.70;2.88;;;8.80;81.90;;;;;;10470086;28;20017;-71
2022/03/07 19:34:29;;;;;;;4.07;2.55;;;8.70;81.70;;;;;;10466845;28;20025;-69
2022/03/07 19:39:30;;;;;;;5.85;2.78;;;8.70;81.70;;;;;;10469943;28;20172;-68
2022/03/07 19:44:31;;;;;;;6.50;2.50;;;8.70;81.50;;;;;;10469965;28;20013;-69
2022/03/07 19:49:32;;;;;;;5.40;3.00;;;8.60;81.40;;;;;;10484284;28;20025;-68
2022/03/07 19:54:33;;;;;;;4.22;2.60;;;8.60;81.30;;;;;;10485063;28;20032;-68
2022/03/07 19:59:35;;;;;;;5.43;2.80;;;8.60;81.40;;;;;;10485409;28;20111;-69
2022/03/07 20:04:36;;;;;;;5.22;2.85;;;8.60;81.30;;;;;;10484645;28;20375;-70
2022/03/07 20:09:37;;;;;;;5.50;2.90;;;8.50;81.20;;;;;;10456617;28;20379;-68
2022/03/07 20:14:38;;;;;;;4.82;3.08;;;8.50;81.30;;;;;;10477402;28;20060;-69
2022/03/07 20:19:39;;;;;;;4.68;3.00;;;8.50;81.40;;;;;;10483812;28;20127;-70
2022/03/07 20:24:40;;;;;;;5.75;3.20;;;8.50;81.30;;;;;;10481368;28;20036;-69
2022/03/07 20:29:40;;;;;;;5.93;3.25;;;8.40;81.20;;;;;;10484153;28;20033;-69
2022/03/07 20:34:41;;;;;;;7.30;3.92;;;8.40;81.50;;;;;;10483412;28;20028;-68
2022/03/07 20:39:42;;;;;;;6.70;3.70;;;8.40;81.50;;;;;;10483747;28;20055;-70
2022/03/07 20:44:43;;;;;;;9.32;3.70;;;8.40;81.60;;;;;;10476450;28;21449;-70
2022/03/07 20:49:44;;;;;;;7.68;3.67;;;8.40;81.70;;;;;;10480529;28;20063;-69
2022/03/07 20:54:45;;;;;;;6.32;3.42;;;8.40;82.40;;;;;;10472307;28;20557;-69
2022/03/07 20:59:46;;;;;;;8.63;3.72;;;8.30;81.70;;;;;;10464083;28;20121;-65
2022/03/07 21:04:46;;;;;;;7.20;3.85;;;8.30;81.70;;;;;;10479738;28;20032;-67
2022/03/07 21:09:47;;;;;;;7.03;4.00;;;8.20;81.60;;;;;;10481548;28;20047;-68
2022/03/07 21:14:48;;;;;;;8.02;3.60;;;8.70;82.00;;;;;;10482836;28;20032;-69
2022/03/07 21:19:49;;;;;;;8.48;4.00;;;8.20;81.70;;;;;;10483130;28;20032;-68
2022/03/07 21:24:50;;;;;;;7.50;4.25;;;8.20;81.70;;;;;;10481339;28;20489;-69
2022/03/07 21:29:51;;;;;;;7.55;3.83;;;8.10;81.70;;;;;;10463334;28;20023;-65
2022/03/07 21:34:52;;;;;;;8.02;3.88;;;8.10;81.70;;;;;;10481445;28;20033;-65
2022/03/07 21:39:56;;;;;;;7.75;4.10;;;8.10;81.70;;;;;;10480621;28;20067;-69
2022/03/07 21:44:57;;;;;;;7.90;4.38;;;8.20;81.60;;;;;;10470866;28;20055;-69
2022/03/07 21:49:58;;;;;;;8.38;3.78;;;8.00;81.70;;;;;;10491880;28;20029;-69
2022/03/07 21:54:58;;;;;;;8.48;3.70;;;8.00;81.80;;;;;;10489580;28;20044;-69
2022/03/07 21:59:59;;;;;;;9.75;4.50;;;8.00;81.90;;;;;;10492122;28;20024;-70
2022/03/07 22:05:00;;;;;;;8.88;4.32;;;8.00;81.90;;;;;;10488065;28;20525;-68
2022/03/07 22:10:01;;;;;;;7.93;3.53;;;7.90;82.00;;;;;;10478975;28;20391;-68
2022/03/07 22:15:02;;;;;;;9.23;4.30;;;7.90;82.00;;;;;;10468964;28;20063;-67
2022/03/07 22:20:04;;;;;;;9.13;4.28;;;7.90;82.20;;;;;;10483621;28;20037;-67
2022/03/07 22:25:06;;;;;;;9.65;4.20;;;7.90;82.20;;;;;;10479261;28;20420;-67
2022/03/07 22:30:07;;;;;;;8.00;3.58;;;7.90;82.20;;;;;;10470371;28;20439;-66
2022/03/07 22:35:09;;;;;;;9.27;4.35;;;7.80;82.20;;;;;;10479858;28;20040;-69
2022/03/07 22:40:10;;;;;;;8.50;3.90;;;7.80;82.30;;;;;;10487615;28;20036;-68
2022/03/07 22:45:11;;;;;;;8.77;4.53;;;7.80;82.40;;;;;;10490900;28;20025;-67
2022/03/07 22:50:12;;;;;;;7.88;4.35;;;7.80;82.50;;;;;;10483359;28;20017;-68
2022/03/07 22:55:13;;;;;;;6.70;3.58;;;7.70;82.50;;;;;;10480680;28;20111;-68
2022/03/07 23:00:25;;;;;;;9.07;4.07;;;7.70;82.50;;;;;;10481445;28;20043;-68
2022/03/07 23:10:45;;;;;;;9.25;4.40;;;7.70;82.60;;;;;;10483577;28;20024;-64
2022/03/07 23:15:46;;;;;;;7.63;3.58;;;7.70;82.60;;;;;;10486055;28;20039;-67
2022/03/07 23:20:47;;;;;;;7.97;4.18;;;7.60;82.60;;;;;;10480386;28;20108;-65
2022/03/07 23:25:48;;;;;;;8.68;4.40;;;7.60;82.60;;;;;;10488739;28;20597;-67
2022/03/07 23:30:49;;;;;;;8.07;4.00;;;7.60;82.70;;;;;;10485932;28;20020;-68
2022/03/07 23:35:52;;;;;;;7.45;3.80;;;7.60;82.70;;;;;;10472481;28;20037;-66
2022/03/07 23:40:53;;;;;;;9.30;3.92;;;7.60;82.70;;;;;;10474461;28;20098;-67
2022/03/07 23:45:54;;;;;;;8.95;4.22;;;7.50;82.60;;;;;;10487156;28;20075;-69
2022/03/07 23:50:55;;;;;;;8.27;4.47;;;7.50;83.20;;;;;;10482676;28;20562;-67
2022/03/07 23:55:56;;;;;;;8.15;3.95;;;7.00;82.30;;;;;;10485412;28;20056;-65
